Hovedside
METAR-TAF:

METAR-TAF

Lufthavner :

Deauville, Frankrike

breddegrad: 49-21-55N, lengdegrad: 000-09-16E, høyde over havet: 146 m

Gjeldene værobservasjon

Denne rapporten ble laget for 38 minutter siden, klokken 14:30 UTC
Vind 6 kt fra Sørøst, skiftende mellom Øst og Sør
Temperatur 27°C
Luftfuktighet 45%
Trykk 1020 hPa
Sikt 10 km eller mer
ingen skyer under 1500 m og ingen bygeskyer

METAR: LFRG 181430Z AUTO 13006KT 090V190 CAVOK 27/14 Q1020 NOSIG

Tid: 17:08 (15:08 UTC)

Varsel

Denne rapporten ble laget for 1 time og 8 minutter siden, klokken 14:00 UTC
Varsel gyldig fra 18. klokken 15 UTC til 18. klokken 24 UTC
Vind 5 kt fra skiftende retning
Sikt 10 km eller mer
ingen skyer under 1500 m og ingen bygeskyer

TAF: LFRG 181400Z 1815/1824 VRB05KT CAVOK

Værobservasjoner og værvarsel for over 4000 flyplasser (METAR- og TAF-rapporter).

Tilgjengelige stasjoner er representert av de røde og gule prikkene på kartet.

Hold musepekeren over prikken for å se navnet på stasjonen.

Klikk så for å se værobservasjoner og -varsler.

For å forandre kartet kan du klikke på den grønne knappen med svart kryss for å zoome inn, på den grønne knappen med strek for å zoome ut, eller på de grønne pilene for å se tilstøtende kart.


METAR-TAF: